Flight Track Log - Related Links

Times and Time Zones

All times are in EDT time to prevent confusion due to time zone crossing. See the CES5437 flight status page for this flight to view local times or setup timezone preferences in your user account.

Time Position Orientation Groundspeed Altitude Reporting Facility
EDT Latitude Longitude Course Direction KTS MPH feet Rate Location/Type
Mon 07:42:00 AM 31.8837 112.5710 238° Southwest  Level Estimated
Mon 07:43:00 AM 31.8237 112.4749 234° Southwest  Level Estimated
Mon 07:44:00 AM 31.7636 112.3788 234° Southwest  Level Estimated
Mon 07:45:00 AM 31.7035 112.2829 234° Southwest  Level Estimated
Mon 07:46:00 AM 31.6432 112.1871 234° Southwest  Level Estimated
Mon 07:47:00 AM 31.5829 112.0915 234° Southwest  Level Estimated
Mon 07:48:00 AM 31.5226 111.9959 233° Southwest  Level Estimated
Mon 07:49:00 AM 31.4621 111.9005 233° Southwest  Level Estimated
Mon 07:50:00 AM 31.4016 111.8052 233° Southwest  Level Estimated
Mon 07:51:00 AM 31.3410 111.7100 233° Southwest  Level Estimated
Mon 07:52:00 AM 31.2804 111.6150 233° Southwest  Level Estimated
Mon 07:53:00 AM 31.2196 111.5200 233° Southwest  Level Estimated
Mon 07:54:00 AM 31.1588 111.4252 233° Southwest  Level Estimated
Mon 07:55:00 AM 31.0980 111.3305 233° Southwest  Level Estimated
Mon 07:56:00 AM 31.0371 111.2360 233° Southwest  Level Estimated
Mon 07:57:00 AM 30.9760 111.1415 233° Southwest  Level Estimated
Mon 07:58:00 AM 30.9150 111.0472 233° Southwest  Level Estimated
Mon 07:59:00 AM 30.8538 110.9530 233° Southwest  Level Estimated
Mon 08:00:00 AM 30.7926 110.8589 233° Southwest  Level Estimated
Mon 08:01:00 AM 30.7313 110.7650 233° Southwest  Level Estimated
Mon 08:02:00 AM 30.6700 110.6711 233° Southwest  Level Estimated
Mon 08:03:00 AM 30.6086 110.5774 233° Southwest  Level Estimated
Mon 08:04:00 AM 30.5471 110.4838 233° Southwest  Level Estimated
Mon 08:05:00 AM 30.4856 110.3903 233° Southwest  Level Estimated
Mon 08:06:00 AM 30.4240 110.2969 233° Southwest  Level Estimated
Mon 08:07:00 AM 30.3623 110.2037 233° Southwest  Level Estimated
Mon 08:08:00 AM 30.3006 110.1105 232° Southwest  Level Estimated
Mon 08:09:00 AM 30.2387 110.0175 232° Southwest  Level Estimated
Mon 08:10:00 AM 30.1769 109.9246 232° Southwest  Level Estimated
Mon 08:11:00 AM 30.1149 109.8318 232° Southwest  Level Estimated
Mon 08:12:00 AM 30.0529 109.7392 232° Southwest  Level Estimated
Mon 08:13:00 AM 29.9909 109.6466 232° Southwest  Level Estimated
Mon 08:14:00 AM 29.9287 109.5542 232° Southwest  Level Estimated
Mon 08:15:00 AM 29.8665 109.4619 232° Southwest  Level Estimated
Mon 08:16:00 AM 29.8043 109.3697 232° Southwest  Level Estimated
Mon 08:17:00 AM 29.7419 109.2776 232° Southwest  Level Estimated
Mon 08:18:00 AM 29.6796 109.1856 232° Southwest  Level Estimated
Mon 08:19:00 AM 29.6171 109.0938 232° Southwest  Level Estimated
Mon 08:20:00 AM 29.5546 109.0020 232° Southwest  Level Estimated
Mon 08:21:00 AM 29.4920 108.9104 232° Southwest  Level Estimated
Mon 08:22:00 AM 29.4294 108.8188 232° Southwest  Level Estimated
Mon 08:23:00 AM 29.3666 108.7274 232° Southwest  Level Estimated
Mon 08:24:00 AM 29.3039 108.6361 232° Southwest  Level Estimated
Mon 08:25:00 AM 29.2411 108.5450 232° Southwest  Level Estimated
Mon 08:26:00 AM 29.1782 108.4539 232° Southwest  Level Estimated
Mon 08:27:00 AM 29.1152 108.3629 232° Southwest  Level Estimated
Mon 08:28:00 AM 29.0522 108.2721 232° Southwest  Level Estimated
Mon 08:29:00 AM 28.9891 108.1814 232° Southwest  Level Estimated
Mon 08:30:00 AM 28.9260 108.0907 231° Southwest  Level Estimated
Mon 08:31:00 AM 28.8628 108.0002 231° Southwest  Level Estimated
Mon 08:32:00 AM 28.7995 107.9098 231° Southwest  Level Estimated
Mon 08:33:00 AM 28.7362 107.8195 231° Southwest  Level Estimated
Mon 08:34:00 AM 28.6728 107.7293 231° Southwest  Level Estimated
Mon 08:35:00 AM 28.6094 107.6392 231° Southwest  Level Estimated
Mon 08:36:00 AM 28.5459 107.5492 231° Southwest  Level Estimated
Mon 08:37:00 AM 28.4823 107.4594 231° Southwest  Level Estimated
Mon 08:38:00 AM 28.4187 107.3696 231° Southwest  Level Estimated
Mon 08:39:00 AM 28.3550 107.2800 231° Southwest  Level Estimated
Mon 08:40:00 AM 28.2913 107.1905 231° Southwest  Level Estimated
Mon 08:41:00 AM 28.2275 107.1010 231° Southwest  Level Estimated
Mon 08:42:00 AM 28.1637 107.0117 231° Southwest  Level Estimated
Mon 08:43:00 AM 28.0998 106.9225 231° Southwest  Level Estimated
Mon 08:44:00 AM 28.0358 106.8334 231° Southwest  Level Estimated
Mon 08:45:00 AM 27.9718 106.7444 231° Southwest  Level Estimated
Mon 08:46:00 AM 27.9077 106.6555 231° Southwest  Level Estimated
Mon 08:47:00 AM 27.8436 106.5667 231° Southwest  Level Estimated
Mon 08:48:00 AM 27.7794 106.4780 231° Southwest  Level Estimated
Mon 08:49:00 AM 27.7151 106.3894 231° Southwest  Level Estimated
Mon 08:50:00 AM 27.6508 106.3009 231° Southwest  Level Estimated
Mon 08:51:00 AM 27.5865 106.2126 231° Southwest  Level Estimated
Mon 08:52:00 AM 27.5220 106.1243 231° Southwest  Level Estimated
Mon 08:53:00 AM 27.4576 106.0361 231° Southwest  Level Estimated
Mon 08:54:00 AM 27.3930 105.9481 230° Southwest  Level Estimated
Mon 08:55:00 AM 27.3284 105.8601 230° Southwest  Level Estimated
Mon 08:56:00 AM 27.2638 105.7722 230° Southwest  Level Estimated
Mon 08:57:00 AM 27.1991 105.6845 230° Southwest  Level Estimated
Mon 08:58:00 AM 27.1344 105.5968 230° Southwest  Level Estimated
Mon 08:59:00 AM 27.0696 105.5093 230° Southwest  Level Estimated
Mon 09:00:00 AM 27.0047 105.4218 230° Southwest  Level Estimated
Mon 09:01:00 AM 26.9398 105.3345 230° Southwest  Level Estimated
Mon 09:02:00 AM 26.8748 105.2472 230° Southwest  Level Estimated
Mon 09:03:00 AM 26.8098 105.1601 230° Southwest  Level Estimated
Mon 09:04:00 AM 26.7447 105.0730 230° Southwest  Level Estimated
Mon 09:05:00 AM 26.6796 104.9861 230° Southwest  Level Estimated
Mon 09:06:00 AM 26.6145 104.8992 230° Southwest  Level Estimated
Mon 09:07:00 AM 26.5492 104.8125 230° Southwest  Level Estimated
Mon 09:08:00 AM 26.4839 104.7258 230° Southwest  Level Estimated
Mon 09:09:00 AM 26.4186 104.6393 230° Southwest  Level Estimated
Mon 09:10:00 AM 26.3532 104.5528 230° Southwest  Level Estimated
Mon 09:11:00 AM 26.2878 104.4664 230° Southwest  Level Estimated
Mon 09:12:00 AM 26.2223 104.3802 230° Southwest  Level Estimated
Mon 09:13:00 AM 26.1567 104.2940 230° Southwest  Level Estimated
Mon 09:14:00 AM 26.0912 104.2079 230° Southwest  Level Estimated
Mon 09:15:00 AM 26.0255 104.1220 230° Southwest  Level Estimated
Mon 09:16:00 AM 25.9598 104.0361 230° Southwest  Level Estimated
Mon 09:17:00 AM 25.8941 103.9503 230° Southwest  Level Estimated
Mon 09:18:00 AM 25.8283 103.8646 230° Southwest  Level Estimated
Mon 09:19:00 AM 25.7624 103.7790 230° Southwest  Level Estimated
Mon 09:20:00 AM 25.6965 103.6935 229° Southwest  Level Estimated
Mon 09:21:00 AM 25.6306 103.6081 229° Southwest  Level Estimated
Mon 09:22:00 AM 25.5646 103.5228 229° Southwest  Level Estimated
Mon 09:23:00 AM 25.4986 103.4376 229° Southwest  Level Estimated
Mon 09:24:00 AM 25.4325 103.3525 229° Southwest  Level Estimated
Mon 09:25:00 AM 25.3663 103.2675 229° Southwest  Level Estimated
Mon 09:26:00 AM 25.3001 103.1825 229° Southwest  Level Estimated
Mon 09:27:00 AM 25.2339 103.0977 229° Southwest  Level Estimated
Mon 09:28:00 AM 25.1676 103.0130 229° Southwest  Level Estimated
Mon 09:29:00 AM 25.1019 102.9292 229° Southwest  Level Estimated
Mon 09:30:00 AM 25.1019 102.9292 326° Northwest  Level Estimated
Mon 09:31:00 AM 25.1019 102.9292 326° Northwest  Level Estimated
Mon 09:32:00 AM 25.1019 102.9292 326° Northwest  Level Estimated
Mon 09:33:00 AM 25.1019 102.9292 326° Northwest  Level Estimated
Mon 09:34:00 AM 25.1019 102.9292 326° Northwest  Level Estimated
Mon 09:35:00 AM 25.1019 102.9292 326° Northwest  Level Estimated
Mon 09:36:00 AM 25.1019 102.9292 326° Northwest  Level Estimated
Mon 09:37:00 AM 25.1019 102.9292 326° Northwest  Level Estimated
Mon 09:38:00 AM 25.1019 102.9292 326° Northwest  Level Estimated
Mon 09:39:00 AM 25.1019 102.9292 326° Northwest  Level Estimated
Mon 09:40:00 AM 25.1019 102.9292 326° Northwest  Level Estimated
Mon 09:41:00 AM 25.1019 102.9292 326° Northwest  Level Estimated
Mon 09:42:00 AM 25.1019 102.9292 326° Northwest  Level Estimated
Mon 09:43:00 AM 25.1019 102.9292 326° Northwest  Level Estimated
Mon 09:44:00 AM 25.1019 102.9292 326° Northwest  Level Estimated

Login

Don't have an account? Register now (free) for customized features, flight alerts, and more!